createdAt,value
2022-10-01T00:01:26.034Z,11.20
2022-10-01T00:03:53.820Z,11.25
2022-10-01T00:06:21.953Z,11.29
2022-10-01T00:08:50.498Z,11.31
2022-10-01T00:11:21.051Z,11.32
2022-10-01T00:13:49.351Z,11.32
2022-10-01T00:16:19.518Z,11.34
2022-10-01T00:18:47.750Z,11.36
2022-10-01T00:21:21.012Z,11.36
2022-10-01T00:23:54.858Z,11.36
2022-10-01T00:26:26.628Z,11.36
2022-10-01T00:28:56.534Z,11.36
2022-10-01T00:31:25.048Z,11.35
2022-10-01T00:33:53.897Z,11.36
2022-10-01T00:36:21.738Z,11.36
2022-10-01T00:38:49.493Z,11.36
2022-10-01T00:41:17.690Z,11.37
2022-10-01T00:43:54.563Z,11.37
2022-10-01T00:46:25.945Z,11.37
2022-10-01T00:49:02.657Z,11.37
2022-10-01T00:51:34.042Z,11.37
2022-10-01T00:54:08.356Z,11.38
2022-10-01T00:56:36.446Z,11.41
2022-10-01T00:59:05.298Z,11.44
2022-10-01T01:01:35.896Z,11.47
2022-10-01T01:04:03.953Z,11.52
2022-10-01T01:06:31.605Z,11.54
2022-10-01T01:09:00.989Z,11.56
2022-10-01T01:11:47.754Z,11.57
2022-10-01T01:14:18.826Z,11.59
2022-10-01T01:16:56.882Z,11.59
2022-10-01T01:19:44.897Z,11.60
2022-10-01T01:22:14.242Z,11.60
2022-10-01T01:24:57.420Z,11.58
2022-10-01T01:27:35.001Z,11.57
2022-10-01T01:30:08.501Z,11.55
2022-10-01T01:32:51.908Z,11.54
2022-10-01T01:35:23.069Z,11.51
2022-10-01T01:37:56.865Z,11.50
2022-10-01T01:40:25.472Z,11.50
2022-10-01T01:42:54.227Z,11.52
2022-10-01T01:45:25.379Z,11.53
2022-10-01T01:47:55.544Z,11.55
2022-10-01T01:50:27.901Z,11.58
2022-10-01T01:52:55.641Z,11.62
2022-10-01T01:55:25.502Z,11.65
2022-10-01T01:57:53.691Z,11.67
2022-10-01T02:00:22.069Z,11.68
2022-10-01T02:02:52.007Z,11.70
2022-10-01T02:05:23.242Z,11.70
2022-10-01T02:08:17.165Z,11.73
2022-10-01T02:11:05.097Z,11.76
2022-10-01T02:13:48.332Z,11.79
2022-10-01T02:16:39.563Z,11.81
2022-10-01T02:19:38.353Z,11.83
2022-10-01T02:22:18.725Z,11.83
2022-10-01T02:24:56.657Z,11.83
2022-10-01T02:27:29.756Z,11.83
2022-10-01T02:30:02.301Z,11.82
2022-10-01T02:32:31.220Z,11.81
2022-10-01T02:34:59.419Z,11.79
2022-10-01T02:37:27.673Z,11.77
2022-10-01T02:39:57.028Z,11.74
2022-10-01T02:42:27.171Z,11.74
2022-10-01T02:44:55.766Z,11.73
2022-10-01T02:47:26.855Z,11.72
2022-10-01T02:49:54.570Z,11.70
2022-10-01T02:52:31.976Z,11.70
2022-10-01T02:55:08.899Z,11.70
2022-10-01T02:57:37.048Z,11.71
2022-10-01T03:00:10.702Z,11.69
2022-10-01T03:02:38.384Z,11.69
2022-10-01T03:05:06.639Z,11.69
2022-10-01T03:07:35.172Z,11.68
2022-10-01T03:10:04.728Z,11.66
2022-10-01T03:12:32.594Z,11.66
2022-10-01T03:15:00.233Z,11.64
2022-10-01T03:17:28.099Z,11.64
2022-10-01T03:19:56.047Z,11.64
2022-10-01T03:22:24.034Z,11.62
2022-10-01T03:24:52.728Z,11.61
2022-10-01T03:27:21.016Z,11.61
2022-10-01T03:29:48.626Z,11.61
2022-10-01T03:32:16.586Z,11.61
2022-10-01T03:34:44.296Z,11.61
2022-10-01T03:37:11.905Z,11.62
2022-10-01T03:39:39.682Z,11.62
2022-10-01T03:42:07.200Z,11.59
2022-10-01T03:44:34.854Z,11.60
2022-10-01T03:47:02.268Z,11.60
2022-10-01T03:49:29.759Z,11.58
2022-10-01T03:51:58.669Z,11.60
2022-10-01T03:54:26.418Z,11.58
2022-10-01T03:56:53.934Z,11.57
2022-10-01T03:59:21.671Z,11.55
2022-10-01T04:01:49.397Z,11.54
2022-10-01T04:04:17.030Z,11.54
2022-10-01T04:06:44.508Z,11.53
2022-10-01T04:09:11.947Z,11.53
2022-10-01T04:11:39.356Z,11.54
2022-10-01T04:14:06.817Z,11.56
2022-10-01T04:16:35.687Z,11.57
2022-10-01T04:19:04.617Z,11.58
2022-10-01T04:21:32.885Z,11.58
2022-10-01T04:24:02.492Z,11.56
2022-10-01T04:26:29.954Z,11.57
2022-10-01T04:28:57.151Z,11.57
2022-10-01T04:31:24.657Z,11.59
2022-10-01T04:33:53.897Z,11.61
2022-10-01T04:36:22.232Z,11.63
2022-10-01T04:38:57.889Z,11.65
2022-10-01T04:41:24.908Z,11.67
2022-10-01T04:43:52.394Z,11.69
2022-10-01T04:46:20.749Z,11.68
2022-10-01T04:48:49.082Z,11.67
2022-10-01T04:51:17.524Z,11.68
2022-10-01T04:53:45.028Z,11.67
2022-10-01T04:56:12.535Z,11.66
2022-10-01T04:58:40.791Z,11.71
2022-10-01T05:01:08.504Z,11.76
2022-10-01T05:03:35.962Z,11.80
2022-10-01T05:06:03.621Z,11.91
2022-10-01T05:08:30.959Z,12.08
2022-10-01T05:11:02.288Z,12.23
2022-10-01T05:13:31.246Z,12.46
2022-10-01T05:16:15.052Z,12.79
2022-10-01T05:18:43.902Z,13.10
2022-10-01T05:21:16.570Z,13.27
2022-10-01T05:24:17.291Z,13.64
2022-10-01T05:26:47.005Z,14.00
2022-10-01T05:29:14.679Z,14.23
2022-10-01T05:31:51.609Z,14.45
2022-10-01T05:34:33.454Z,14.79
2022-10-01T05:37:25.498Z,15.39
2022-10-01T05:40:10.308Z,15.77
2022-10-01T05:43:03.579Z,15.98
2022-10-01T05:45:32.275Z,16.40
2022-10-01T05:48:04.079Z,16.72
2022-10-01T05:50:33.177Z,17.08
2022-10-01T05:53:01.476Z,17.31
2022-10-01T05:55:31.432Z,17.50
2022-10-01T05:58:00.775Z,17.54
2022-10-01T06:00:29.106Z,17.42
2022-10-01T06:02:58.331Z,17.33
2022-10-01T06:05:26.668Z,17.24
2022-10-01T06:07:54.151Z,17.16
2022-10-01T06:10:21.729Z,17.10
2022-10-01T06:12:49.082Z,17.06
2022-10-01T06:15:17.030Z,17.06
2022-10-01T06:17:44.636Z,17.07
2022-10-01T06:20:19.672Z,17.05
2022-10-01T06:22:55.354Z,17.03
2022-10-01T06:25:23.021Z,17.04
2022-10-01T06:27:56.528Z,16.99
2022-10-01T06:30:32.618Z,16.90
2022-10-01T06:33:06.024Z,16.87
2022-10-01T06:35:34.709Z,16.90
2022-10-01T06:38:02.312Z,16.93
2022-10-01T06:40:30.542Z,16.94
2022-10-01T06:42:58.225Z,16.88
2022-10-01T06:45:27.042Z,16.79
2022-10-01T06:48:01.220Z,16.72
2022-10-01T06:50:39.476Z,16.62
2022-10-01T06:53:08.269Z,16.54
2022-10-01T06:55:39.175Z,16.47
2022-10-01T06:58:20.650Z,16.43
2022-10-01T07:00:50.859Z,16.35
2022-10-01T07:03:21.118Z,16.36
2022-10-01T07:05:49.960Z,16.40
2022-10-01T07:08:18.422Z,16.53
2022-10-01T07:10:46.137Z,16.66
2022-10-01T07:13:17.603Z,16.95
2022-10-01T07:15:45.376Z,17.32
2022-10-01T07:18:13.487Z,17.73
2022-10-01T07:20:41.522Z,18.09
2022-10-01T07:23:13.313Z,18.46
2022-10-01T07:25:41.876Z,18.89
2022-10-01T07:28:14.612Z,19.24
2022-10-01T07:30:46.981Z,19.54
2022-10-01T07:33:19.044Z,19.87
2022-10-01T07:35:47.579Z,20.24
2022-10-01T07:38:15.175Z,20.57
2022-10-01T07:40:44.078Z,20.86
2022-10-01T07:43:13.258Z,21.12
2022-10-01T07:45:41.938Z,21.35
2022-10-01T07:48:14.678Z,21.64
2022-10-01T07:50:44.794Z,21.93
2022-10-01T07:53:12.846Z,22.15
2022-10-01T07:55:42.155Z,22.41
2022-10-01T07:58:10.374Z,22.63
2022-10-01T08:00:38.758Z,22.82
2022-10-01T08:03:06.432Z,22.95
2022-10-01T08:05:35.753Z,23.16
2022-10-01T08:08:08.141Z,23.30
2022-10-01T08:10:38.285Z,23.43
2022-10-01T08:13:15.028Z,23.57
2022-10-01T08:15:45.459Z,23.66
2022-10-01T08:18:13.084Z,23.71
2022-10-01T08:20:40.822Z,23.80
2022-10-01T08:23:10.924Z,24.00
2022-10-01T08:25:41.593Z,24.12
2022-10-01T08:28:10.883Z,24.06
2022-10-01T08:30:40.297Z,24.13
2022-10-01T08:33:10.411Z,24.06
2022-10-01T08:35:39.856Z,24.20
2022-10-01T08:38:08.991Z,24.38
2022-10-01T08:40:42.919Z,24.44
2022-10-01T08:43:31.815Z,24.47
2022-10-01T08:46:06.910Z,24.55
2022-10-01T08:49:02.459Z,24.63
2022-10-01T08:51:51.378Z,24.64
2022-10-01T08:54:31.869Z,24.65
2022-10-01T08:57:01.782Z,24.66
2022-10-01T08:59:44.033Z,24.64
2022-10-01T09:02:20.149Z,24.47
2022-10-01T09:04:50.283Z,24.34
2022-10-01T09:07:36.363Z,24.20
2022-10-01T09:10:19.809Z,24.04
2022-10-01T09:13:07.889Z,24.05
2022-10-01T09:15:41.320Z,24.34
2022-10-01T09:18:21.854Z,24.62
2022-10-01T09:20:58.039Z,24.83
2022-10-01T09:23:37.954Z,24.92
2022-10-01T09:26:06.986Z,24.94
2022-10-01T09:28:35.364Z,24.90
2022-10-01T09:31:15.796Z,24.67
2022-10-01T09:33:47.101Z,24.37
2022-10-01T09:36:37.666Z,24.23
2022-10-01T09:39:26.335Z,24.36
2022-10-01T09:41:54.083Z,24.33
2022-10-01T09:44:27.856Z,24.32
2022-10-01T09:46:55.539Z,24.43
2022-10-01T09:49:39.695Z,24.49
2022-10-01T09:52:20.504Z,24.57
2022-10-01T09:54:53.766Z,24.57
2022-10-01T09:57:39.492Z,24.47
2022-10-01T10:00:10.727Z,24.36
2022-10-01T10:02:46.048Z,24.28
2022-10-01T10:05:16.424Z,24.23
2022-10-01T10:07:47.045Z,24.04
2022-10-01T10:10:24.755Z,23.90
2022-10-01T10:12:56.608Z,23.82
2022-10-01T10:15:27.648Z,23.72
2022-10-01T10:17:56.486Z,23.58
2022-10-01T10:20:27.522Z,23.56
2022-10-01T10:23:10.404Z,23.69
2022-10-01T10:25:38.142Z,23.85
2022-10-01T10:28:09.735Z,23.99
2022-10-01T10:30:37.580Z,24.07
2022-10-01T10:33:07.713Z,24.08
2022-10-01T10:35:38.015Z,24.21
2022-10-01T10:38:05.852Z,24.29
2022-10-01T10:40:44.432Z,24.28
2022-10-01T10:43:28.680Z,24.30
2022-10-01T10:45:57.474Z,24.52
2022-10-01T10:48:28.868Z,24.88
2022-10-01T10:51:01.523Z,25.18
2022-10-01T10:53:32.987Z,25.35
2022-10-01T10:56:05.274Z,25.42
2022-10-01T10:58:36.635Z,25.38
2022-10-01T11:01:09.948Z,25.31
2022-10-01T11:03:40.016Z,25.26
2022-10-01T11:06:12.734Z,25.36
2022-10-01T11:08:40.942Z,25.41
2022-10-01T11:11:12.462Z,25.56
2022-10-01T11:13:49.288Z,25.58
2022-10-01T11:16:56.126Z,25.64
2022-10-01T11:19:30.264Z,25.70
2022-10-01T11:22:04.435Z,25.65
2022-10-01T11:25:00.545Z,25.62
2022-10-01T11:27:35.623Z,25.66
2022-10-01T11:30:21.948Z,25.75
2022-10-01T11:33:07.873Z,25.82
2022-10-01T11:35:42.261Z,25.83
2022-10-01T11:38:31.673Z,25.84
2022-10-01T11:41:31.713Z,25.86
2022-10-01T11:44:08.376Z,25.86
2022-10-01T11:46:45.333Z,25.84
2022-10-01T11:49:22.353Z,25.82
2022-10-01T11:51:56.365Z,25.78
2022-10-01T11:54:26.135Z,25.74
2022-10-01T11:57:18.891Z,25.66
2022-10-01T11:59:59.567Z,25.62
2022-10-01T12:02:47.584Z,25.54
2022-10-01T12:05:27.032Z,25.42
2022-10-01T12:08:03.018Z,25.29
2022-10-01T12:10:51.331Z,25.22
2022-10-01T12:13:36.110Z,25.22
2022-10-01T12:16:35.190Z,25.23
2022-10-01T12:19:31.570Z,25.26
2022-10-01T12:22:08.667Z,25.26
2022-10-01T12:24:42.227Z,25.16
2022-10-01T12:27:30.747Z,25.14
2022-10-01T12:30:16.788Z,25.11
2022-10-01T12:33:00.210Z,25.09
2022-10-01T12:35:39.676Z,24.99
2022-10-01T12:38:10.751Z,24.93
2022-10-01T12:40:47.483Z,24.87
2022-10-01T12:43:30.272Z,24.81
2022-10-01T12:46:07.007Z,24.81
2022-10-01T12:48:37.809Z,24.80
2022-10-01T12:51:25.629Z,24.74
2022-10-01T12:54:14.907Z,24.66
2022-10-01T12:56:52.155Z,24.71
2022-10-01T12:59:32.570Z,24.81
2022-10-01T13:02:22.104Z,24.92
2022-10-01T13:05:10.338Z,24.93
2022-10-01T13:07:56.402Z,24.90
2022-10-01T13:10:59.902Z,24.82
2022-10-01T13:13:34.142Z,24.71
2022-10-01T13:16:22.405Z,24.62
2022-10-01T13:19:13.072Z,24.63
2022-10-01T13:21:49.876Z,24.62
2022-10-01T13:24:20.740Z,24.58
2022-10-01T13:26:55.344Z,24.49
2022-10-01T13:29:50.470Z,24.41
2022-10-01T13:32:30.611Z,24.36
2022-10-01T13:34:59.569Z,24.26
2022-10-01T13:37:32.889Z,24.19
2022-10-01T13:40:00.640Z,24.16
2022-10-01T13:42:30.213Z,24.18
2022-10-01T13:45:06.022Z,24.20
2022-10-01T13:47:37.185Z,24.24
2022-10-01T13:50:20.233Z,24.28
2022-10-01T13:52:47.435Z,24.27
2022-10-01T13:55:27.608Z,24.30
2022-10-01T13:58:07.110Z,24.28
2022-10-01T14:00:36.276Z,24.22
2022-10-01T14:03:29.023Z,24.17
2022-10-01T14:05:57.552Z,24.12
2022-10-01T14:08:31.674Z,24.05
2022-10-01T14:11:26.680Z,24.03
2022-10-01T14:14:12.862Z,23.98
2022-10-01T14:16:45.237Z,23.92
2022-10-01T14:19:20.309Z,23.87
2022-10-01T14:21:51.200Z,23.80
2022-10-01T14:24:34.261Z,23.76
2022-10-01T14:27:22.503Z,23.73
2022-10-01T14:29:57.002Z,23.68
2022-10-01T14:32:39.939Z,23.64
2022-10-01T14:35:20.399Z,23.56
2022-10-01T14:37:48.733Z,23.48
2022-10-01T14:40:19.821Z,23.45
2022-10-01T14:43:00.513Z,23.44
2022-10-01T14:45:28.238Z,23.41
2022-10-01T14:48:07.082Z,23.36
2022-10-01T14:50:37.171Z,23.33
2022-10-01T14:53:05.086Z,23.31
2022-10-01T14:55:34.779Z,23.29
2022-10-01T14:58:01.846Z,23.25
2022-10-01T15:00:31.692Z,23.22
2022-10-01T15:03:14.896Z,23.21
2022-10-01T15:05:43.083Z,23.18
2022-10-01T15:08:26.543Z,23.14
2022-10-01T15:10:58.229Z,23.09
2022-10-01T15:13:34.384Z,23.02
2022-10-01T15:16:05.601Z,22.97
2022-10-01T15:21:40.418Z,22.79
2022-10-01T15:24:17.926Z,22.69
2022-10-01T15:26:47.211Z,22.63
2022-10-01T15:29:17.166Z,22.54
2022-10-01T15:31:52.618Z,22.47
2022-10-01T15:34:21.451Z,22.38
2022-10-01T15:36:51.357Z,22.31
2022-10-01T15:39:30.852Z,22.23
2022-10-01T15:41:59.224Z,22.14
2022-10-01T15:44:38.421Z,22.05
2022-10-01T15:47:35.002Z,21.96
2022-10-01T15:50:11.840Z,21.86
2022-10-01T15:52:52.556Z,21.72
2022-10-01T15:55:29.427Z,21.58
2022-10-01T15:58:09.843Z,21.46
2022-10-01T16:00:57.166Z,21.30
2022-10-01T16:03:32.247Z,21.13
2022-10-01T16:06:01.502Z,20.93
2022-10-01T16:08:33.331Z,20.74
2022-10-01T16:11:24.249Z,20.59
2022-10-01T16:13:52.350Z,20.44
2022-10-01T16:16:23.100Z,20.31
2022-10-01T16:19:20.072Z,20.19
2022-10-01T16:22:14.128Z,20.04
2022-10-01T16:24:46.229Z,19.89
2022-10-01T16:27:36.245Z,19.80
2022-10-01T16:30:11.284Z,19.72
2022-10-01T16:32:38.623Z,19.64
2022-10-01T16:35:18.038Z,19.53
2022-10-01T16:37:47.767Z,19.46
2022-10-01T16:40:16.613Z,19.39
2022-10-01T16:42:45.399Z,19.32
2022-10-01T16:45:16.288Z,19.25
2022-10-01T16:47:44.728Z,19.21
2022-10-01T16:50:16.854Z,19.16
2022-10-01T16:52:44.455Z,19.13
2022-10-01T16:55:22.037Z,19.08
2022-10-01T16:57:50.492Z,19.03
2022-10-01T17:00:19.371Z,18.96
2022-10-01T17:02:46.723Z,18.91
2022-10-01T17:05:26.664Z,18.85
2022-10-01T17:07:56.838Z,18.79
2022-10-01T17:10:25.860Z,18.72
2022-10-01T17:12:54.134Z,18.67
2022-10-01T17:15:25.293Z,18.59
2022-10-01T17:17:53.869Z,18.53
2022-10-01T17:20:22.072Z,18.49
2022-10-01T17:22:50.884Z,18.46
2022-10-01T17:25:25.206Z,18.41
2022-10-01T17:27:52.719Z,18.37
2022-10-01T17:30:20.327Z,18.34
2022-10-01T17:32:47.439Z,18.29
2022-10-01T17:35:16.133Z,18.26
2022-10-01T17:37:43.416Z,18.22
2022-10-01T17:40:11.632Z,18.18
2022-10-01T17:42:39.078Z,18.13
2022-10-01T17:45:09.052Z,18.09
2022-10-01T17:47:36.761Z,18.06
2022-10-01T17:50:04.725Z,18.02
2022-10-01T17:52:32.393Z,17.98
2022-10-01T17:55:00.040Z,17.94
2022-10-01T17:57:27.505Z,17.90
2022-10-01T17:59:54.659Z,17.86
2022-10-01T18:02:40.873Z,17.83
2022-10-01T18:04:51.328Z,17.80
2022-10-01T18:07:19.641Z,17.78
2022-10-01T18:09:46.984Z,17.73
2022-10-01T18:12:14.423Z,17.71
2022-10-01T18:14:41.952Z,17.71
2022-10-01T18:17:09.374Z,17.70
2022-10-01T18:19:53.601Z,17.70
2022-10-01T18:22:13.703Z,17.70
2022-10-01T18:24:36.041Z,17.67
2022-10-01T18:27:03.684Z,17.58
2022-10-01T18:29:31.272Z,17.53
2022-10-01T18:32:08.351Z,17.49
2022-10-01T18:34:45.040Z,17.45
2022-10-01T18:37:37.549Z,17.41
2022-10-01T18:40:12.353Z,17.38
2022-10-01T18:42:57.614Z,17.34
2022-10-01T18:46:01.020Z,17.32
2022-10-01T18:48:35.241Z,17.33
2022-10-01T18:51:24.413Z,17.32
2022-10-01T18:54:07.531Z,17.34
2022-10-01T18:56:36.681Z,17.31
2022-10-01T18:59:24.447Z,17.26
2022-10-01T19:02:20.186Z,17.14
2022-10-01T19:04:51.178Z,16.99
2022-10-01T19:07:33.571Z,16.84
2022-10-01T19:10:07.539Z,16.70
2022-10-01T19:12:59.788Z,16.61
2022-10-01T19:15:49.223Z,16.53
2022-10-01T19:18:46.353Z,16.45
2022-10-01T19:21:29.363Z,16.39
2022-10-01T19:24:23.716Z,16.32
2022-10-01T19:27:03.870Z,16.29
2022-10-01T19:29:44.027Z,16.26
2022-10-01T19:32:25.748Z,16.22
2022-10-01T19:35:21.269Z,16.20
2022-10-01T19:38:03.745Z,16.17
2022-10-01T19:40:43.358Z,16.15
2022-10-01T19:43:29.500Z,16.16
2022-10-01T19:46:11.679Z,16.16
2022-10-01T19:49:01.384Z,16.18
2022-10-01T19:51:32.221Z,16.20
2022-10-01T19:54:02.190Z,16.21
2022-10-01T19:56:32.188Z,16.20
2022-10-01T19:59:14.276Z,16.20
2022-10-01T20:01:45.555Z,16.19
2022-10-01T20:04:16.680Z,16.19
2022-10-01T20:06:46.337Z,16.19
2022-10-01T20:09:26.454Z,16.18
2022-10-01T20:12:18.797Z,16.16
2022-10-01T20:15:08.317Z,16.14
2022-10-01T20:17:47.345Z,16.14
2022-10-01T20:20:24.339Z,16.14
2022-10-01T20:23:01.655Z,16.16
2022-10-01T20:25:51.380Z,16.18
2022-10-01T20:28:31.556Z,16.17
2022-10-01T20:31:17.859Z,16.19
2022-10-01T20:34:07.991Z,16.16
2022-10-01T20:36:47.578Z,16.16
2022-10-01T20:39:27.590Z,16.14
2022-10-01T20:41:55.641Z,16.10
2022-10-01T20:44:28.838Z,16.11
2022-10-01T20:47:09.526Z,16.09
2022-10-01T20:49:46.479Z,16.08
2022-10-01T20:52:33.802Z,16.07
2022-10-01T20:55:13.642Z,16.04
2022-10-01T20:57:46.766Z,16.03
2022-10-01T21:00:20.717Z,16.01
2022-10-01T21:03:15.534Z,16.02
2022-10-01T21:05:49.709Z,16.00
2022-10-01T21:08:36.774Z,15.96
2022-10-01T21:11:27.556Z,15.92
2022-10-01T21:14:18.034Z,15.89
2022-10-01T21:17:12.807Z,15.88
2022-10-01T21:19:49.657Z,15.87
2022-10-01T21:22:30.631Z,15.88
2022-10-01T21:25:27.903Z,15.87
2022-10-01T21:28:02.723Z,15.87
2022-10-01T21:30:33.706Z,15.87
2022-10-01T21:33:04.975Z,15.86
2022-10-01T21:35:54.602Z,15.84
2022-10-01T21:38:48.379Z,15.82
2022-10-01T21:41:28.138Z,15.80
2022-10-01T21:44:20.630Z,15.77
2022-10-01T21:47:10.249Z,15.77
2022-10-01T21:49:53.812Z,15.75
2022-10-01T21:52:31.126Z,15.71
2022-10-01T21:55:31.544Z,15.69
2022-10-01T21:58:14.732Z,15.67
2022-10-01T22:00:43.880Z,15.64
2022-10-01T22:03:22.979Z,15.63
2022-10-01T22:06:11.504Z,15.63
2022-10-01T22:08:48.490Z,15.61
2022-10-01T22:11:25.112Z,15.60
2022-10-01T22:13:56.140Z,15.61
2022-10-01T22:16:26.567Z,15.55
2022-10-01T22:18:57.930Z,15.58
2022-10-01T22:21:44.099Z,15.57
2022-10-01T22:24:14.714Z,15.53
2022-10-01T22:26:54.637Z,15.47
2022-10-01T22:29:28.051Z,15.43
2022-10-01T22:31:58.155Z,15.35
2022-10-01T22:34:29.723Z,15.31
2022-10-01T22:37:09.696Z,15.31
2022-10-01T22:39:39.662Z,15.32
2022-10-01T22:42:10.731Z,15.28
2022-10-01T22:44:38.337Z,15.26
2022-10-01T22:47:18.342Z,15.25
2022-10-01T22:49:59.319Z,15.22
2022-10-01T22:52:51.451Z,15.26
2022-10-01T22:55:24.025Z,15.28
2022-10-01T22:58:00.917Z,15.28
2022-10-01T23:00:28.573Z,15.27
2022-10-01T23:03:08.609Z,15.27
2022-10-01T23:05:47.371Z,15.27
2022-10-01T23:08:35.325Z,15.26
2022-10-01T23:11:33.456Z,15.23
2022-10-01T23:14:16.505Z,15.19
2022-10-01T23:16:50.508Z,15.19
2022-10-01T23:19:36.747Z,15.19
2022-10-01T23:22:12.481Z,15.19
2022-10-01T23:25:02.358Z,15.18
2022-10-01T23:27:48.681Z,15.16
2022-10-01T23:30:18.635Z,15.15
2022-10-01T23:33:07.672Z,15.16
2022-10-01T23:35:58.348Z,15.16
2022-10-01T23:38:35.676Z,15.16
2022-10-01T23:41:09.428Z,15.18
2022-10-01T23:43:48.091Z,15.18
2022-10-01T23:46:24.907Z,15.15
2022-10-01T23:49:01.382Z,15.14
2022-10-01T23:51:32.265Z,15.13
2022-10-01T23:54:21.487Z,15.13
2022-10-01T23:56:55.197Z,15.14
2022-10-01T23:59:34.905Z,15.13
